createdAt,value
2017-09-10T00:00:11.596Z,4.90
2017-09-10T00:02:39.134Z,5.57
2017-09-10T00:05:07.434Z,4.80
2017-09-10T00:07:34.968Z,4.60
2017-09-10T00:10:02.526Z,4.63
2017-09-10T00:12:30.836Z,5.63
2017-09-10T00:14:58.396Z,4.80
2017-09-10T00:17:26.587Z,5.00
2017-09-10T00:19:54.116Z,4.17
2017-09-10T00:22:21.658Z,3.60
2017-09-10T00:24:49.988Z,4.60
2017-09-10T00:27:17.572Z,4.27
2017-09-10T00:29:45.123Z,5.60
2017-09-10T00:32:12.683Z,5.07
2017-09-10T00:34:41.620Z,5.00
2017-09-10T00:37:10.188Z,4.60
2017-09-10T00:39:38.498Z,4.30
2017-09-10T00:42:06.045Z,4.13
2017-09-10T00:44:33.654Z,3.60
2017-09-10T00:47:01.186Z,4.10
2017-09-10T00:49:28.737Z,4.40
2017-09-10T00:51:57.050Z,3.73
2017-09-10T00:54:24.857Z,3.10
2017-09-10T00:56:52.403Z,4.13
2017-09-10T00:59:19.938Z,3.30
2017-09-10T01:01:47.491Z,3.43
2017-09-10T01:04:15.012Z,3.60
2017-09-10T01:06:43.574Z,3.83
2017-09-10T01:09:11.127Z,3.57
2017-09-10T01:11:38.695Z,3.50
2017-09-10T01:14:06.243Z,3.80
2017-09-10T01:16:33.780Z,3.43
2017-09-10T01:19:01.601Z,3.57
2017-09-10T01:21:29.187Z,3.80
2017-09-10T01:23:56.728Z,4.10
2017-09-10T01:26:24.389Z,3.47
2017-09-10T01:28:51.923Z,3.23
2017-09-10T01:31:19.478Z,3.97
2017-09-10T01:33:47.015Z,4.07
2017-09-10T01:36:14.819Z,3.50
2017-09-10T01:38:42.501Z,3.67
2017-09-10T01:41:10.593Z,3.97
2017-09-10T01:43:38.186Z,3.90
2017-09-10T01:46:05.721Z,3.60
2017-09-10T01:48:33.258Z,3.50
2017-09-10T01:51:00.803Z,4.00
2017-09-10T01:53:28.424Z,4.00
2017-09-10T01:55:55.988Z,5.60
2017-09-10T01:58:24.293Z,4.50
2017-09-10T02:00:51.829Z,3.90
2017-09-10T02:03:19.342Z,4.80
2017-09-10T02:05:46.906Z,4.37
2017-09-10T02:08:14.434Z,4.73
2017-09-10T02:10:41.982Z,4.20
2017-09-10T02:13:09.554Z,4.60
2017-09-10T02:15:37.077Z,5.30
2017-09-10T02:18:04.630Z,5.50
2017-09-10T02:20:32.208Z,5.03
2017-09-10T02:22:59.814Z,5.20
2017-09-10T02:25:27.339Z,5.23
2017-09-10T02:27:58.502Z,5.17
2017-09-10T02:30:26.044Z,5.70
2017-09-10T02:32:53.621Z,5.47
2017-09-10T02:35:21.853Z,4.60
2017-09-10T02:37:49.396Z,4.70
2017-09-10T02:40:16.929Z,4.57
2017-09-10T02:42:44.529Z,5.73
2017-09-10T02:45:12.063Z,4.47
2017-09-10T02:47:39.592Z,4.60
2017-09-10T02:50:07.165Z,4.70
2017-09-10T02:52:34.707Z,4.70
2017-09-10T02:55:02.897Z,4.60
2017-09-10T02:57:30.496Z,4.20
2017-09-10T02:59:58.035Z,5.20
2017-09-10T03:02:25.889Z,4.67
2017-09-10T03:04:53.542Z,4.50
2017-09-10T03:07:21.122Z,4.87
2017-09-10T03:09:48.696Z,4.90
2017-09-10T03:12:16.244Z,4.73
2017-09-10T03:14:43.819Z,4.30
2017-09-10T03:17:11.483Z,4.80
2017-09-10T03:19:40.106Z,4.60
2017-09-10T03:22:07.705Z,4.73
2017-09-10T03:24:35.259Z,5.50
2017-09-10T03:27:02.804Z,4.73
2017-09-10T03:29:30.335Z,4.50
2017-09-10T03:31:57.905Z,4.87
2017-09-10T03:34:25.482Z,5.37
2017-09-10T03:36:53.023Z,4.87
2017-09-10T03:39:20.561Z,4.10
2017-09-10T03:41:48.122Z,5.13
2017-09-10T03:44:15.829Z,6.50
2017-09-10T03:46:43.355Z,6.67
2017-09-10T03:49:10.906Z,6.37
2017-09-10T03:51:39.222Z,6.07
2017-09-10T03:54:06.763Z,5.90
2017-09-10T03:56:34.297Z,5.60
2017-09-10T03:59:02.908Z,5.80
2017-09-10T04:01:30.516Z,6.00
2017-09-10T04:03:58.096Z,5.70
2017-09-10T04:06:25.935Z,5.70
2017-09-10T04:08:53.474Z,5.93
2017-09-10T04:11:21.018Z,6.57
2017-09-10T04:13:48.537Z,3.57
2017-09-10T04:16:16.126Z,4.43
2017-09-10T04:18:43.712Z,5.20
2017-09-10T04:21:11.231Z,4.37
2017-09-10T04:23:38.779Z,4.00
2017-09-10T04:26:06.308Z,3.20
2017-09-10T04:28:35.100Z,3.20
2017-09-10T04:31:02.648Z,5.10
2017-09-10T04:33:30.170Z,4.50
2017-09-10T04:35:57.811Z,4.77
2017-09-10T04:38:25.358Z,5.30
2017-09-10T04:40:53.684Z,4.20
2017-09-10T04:43:21.196Z,4.10
2017-09-10T04:45:48.759Z,4.67
2017-09-10T04:48:16.317Z,5.40
2017-09-10T04:50:43.852Z,4.37
2017-09-10T04:53:11.393Z,4.13
2017-09-10T04:55:39.111Z,4.00
2017-09-10T04:58:06.643Z,4.73
2017-09-10T05:00:34.178Z,3.30
2017-09-10T05:03:01.761Z,4.20
2017-09-10T05:05:29.298Z,3.70
2017-09-10T05:07:56.808Z,4.00
2017-09-10T05:10:24.365Z,3.80
2017-09-10T05:12:51.914Z,3.10
2017-09-10T05:15:19.490Z,3.90
2017-09-10T05:17:47.028Z,3.00
2017-09-10T05:20:14.548Z,4.47
2017-09-10T05:22:42.171Z,3.83
2017-09-10T05:25:09.728Z,3.87
2017-09-10T05:27:37.270Z,4.00
2017-09-10T05:30:04.830Z,3.70
2017-09-10T05:32:32.353Z,2.53
2017-09-10T05:34:59.929Z,3.93
2017-09-10T05:37:28.302Z,4.00
2017-09-10T05:39:56.109Z,3.70
2017-09-10T05:42:23.654Z,4.80
2017-09-10T05:44:51.202Z,4.63
2017-09-10T05:47:18.766Z,5.27
2017-09-10T05:49:46.278Z,3.90
2017-09-10T05:52:13.858Z,4.60
2017-09-10T05:54:41.386Z,5.43
2017-09-10T05:57:08.937Z,4.60
2017-09-10T05:59:36.543Z,4.60
2017-09-10T06:02:04.086Z,4.90
2017-09-10T06:04:31.878Z,4.47
2017-09-10T06:06:59.468Z,4.37
2017-09-10T06:09:26.996Z,4.60
2017-09-10T06:11:54.567Z,4.93
2017-09-10T06:14:22.149Z,4.77
2017-09-10T06:16:50.033Z,7.20
2017-09-10T06:19:18.291Z,6.50
2017-09-10T06:21:45.832Z,8.40
2017-09-10T06:24:13.451Z,7.00
2017-09-10T06:26:40.992Z,5.30
2017-09-10T06:29:08.525Z,4.33
2017-09-10T06:31:36.056Z,4.00
2017-09-10T06:34:03.702Z,3.90
2017-09-10T06:36:32.060Z,4.53
2017-09-10T06:38:59.582Z,4.03
2017-09-10T06:41:27.388Z,3.97
2017-09-10T06:43:55.948Z,4.10
2017-09-10T06:46:23.582Z,2.83
2017-09-10T06:48:51.149Z,3.67
2017-09-10T06:51:18.706Z,3.30
2017-09-10T06:53:46.267Z,3.90
2017-09-10T06:56:13.847Z,3.50
2017-09-10T06:58:41.468Z,3.90
2017-09-10T07:01:09.771Z,3.83
2017-09-10T07:03:37.322Z,3.33
2017-09-10T07:06:04.902Z,3.60
2017-09-10T07:08:32.437Z,3.93
2017-09-10T07:10:59.984Z,3.30
2017-09-10T07:13:28.287Z,3.70
2017-09-10T07:15:55.896Z,3.40
2017-09-10T07:18:23.440Z,4.10
2017-09-10T07:20:51.011Z,4.50
2017-09-10T07:23:18.558Z,3.53
2017-09-10T07:25:46.135Z,4.00
2017-09-10T07:28:14.128Z,3.63
2017-09-10T07:30:41.646Z,4.00
2017-09-10T07:33:09.203Z,3.80
2017-09-10T07:35:36.768Z,4.07
2017-09-10T07:38:04.359Z,3.90
2017-09-10T07:40:31.914Z,3.50
2017-09-10T07:42:59.500Z,4.43
2017-09-10T07:45:27.320Z,3.90
2017-09-10T07:47:54.851Z,3.40
2017-09-10T07:50:22.499Z,4.00
2017-09-10T07:52:50.081Z,3.90
2017-09-10T07:55:17.718Z,3.40
2017-09-10T07:57:45.599Z,3.83
2017-09-10T08:00:13.151Z,3.97
2017-09-10T08:02:40.704Z,3.23
2017-09-10T08:05:08.274Z,3.30
2017-09-10T08:07:35.807Z,3.57
2017-09-10T08:10:03.722Z,3.80
2017-09-10T08:12:31.273Z,4.13
2017-09-10T08:14:58.808Z,3.10
2017-09-10T08:17:26.365Z,3.60
2017-09-10T08:19:53.927Z,3.50
2017-09-10T08:22:21.484Z,3.90
2017-09-10T08:24:49.043Z,3.20
2017-09-10T08:27:16.867Z,2.83
2017-09-10T08:29:44.410Z,3.30
2017-09-10T08:32:11.955Z,2.80
2017-09-10T08:34:39.554Z,2.73
2017-09-10T08:37:07.781Z,3.40
2017-09-10T08:39:35.351Z,2.73
2017-09-10T08:42:02.948Z,3.20
2017-09-10T08:44:30.546Z,2.93
2017-09-10T08:46:58.138Z,2.83
2017-09-10T08:49:25.682Z,2.70
2017-09-10T08:51:53.236Z,3.90
2017-09-10T08:54:20.842Z,2.93
2017-09-10T08:56:48.400Z,3.17
2017-09-10T08:59:15.937Z,3.10
2017-09-10T09:01:43.492Z,4.20
2017-09-10T09:04:11.084Z,2.97
2017-09-10T09:06:39.401Z,3.50
2017-09-10T09:09:06.960Z,3.40
2017-09-10T09:11:34.528Z,3.63
2017-09-10T09:14:02.089Z,3.10
2017-09-10T09:16:29.639Z,2.97
2017-09-10T09:18:57.184Z,3.10
2017-09-10T09:21:24.731Z,3.00
2017-09-10T09:23:52.256Z,2.90
2017-09-10T09:26:19.815Z,3.17
2017-09-10T09:28:47.378Z,2.43
2017-09-10T09:31:14.923Z,2.40
2017-09-10T09:36:24.910Z,2.70
2017-09-10T09:38:52.490Z,2.13
2017-09-10T09:41:20.023Z,2.33
2017-09-10T09:43:47.606Z,2.37
2017-09-10T09:46:15.185Z,2.20
2017-09-10T09:48:42.765Z,2.70
2017-09-10T09:51:10.319Z,2.03
2017-09-10T09:53:37.883Z,2.10
2017-09-10T09:56:05.760Z,2.23
2017-09-10T09:58:33.311Z,1.87
2017-09-10T10:01:00.840Z,2.30
2017-09-10T10:03:28.384Z,2.00
2017-09-10T10:05:56.703Z,2.63
2017-09-10T10:08:24.264Z,2.10
2017-09-10T10:10:51.792Z,2.60
2017-09-10T10:13:19.356Z,2.30
2017-09-10T10:15:46.896Z,2.53
2017-09-10T10:18:14.480Z,2.83
2017-09-10T10:20:42.043Z,2.37
2017-09-10T10:23:09.594Z,2.07
2017-09-10T10:25:37.152Z,2.27
2017-09-10T10:28:04.706Z,2.20
2017-09-10T10:30:32.288Z,1.93
2017-09-10T10:32:59.839Z,2.30
2017-09-10T10:35:27.387Z,2.20
2017-09-10T10:37:54.926Z,2.20
2017-09-10T10:40:23.229Z,2.20
2017-09-10T10:42:50.805Z,1.93
2017-09-10T10:45:18.340Z,2.20
2017-09-10T10:47:46.352Z,2.00
2017-09-10T10:50:13.909Z,2.30
2017-09-10T10:52:41.528Z,1.63
2017-09-10T10:55:09.069Z,1.80
2017-09-10T10:57:36.613Z,1.70
2017-09-10T11:00:04.942Z,1.60
2017-09-10T11:02:32.624Z,1.50
2017-09-10T11:05:00.588Z,1.90
2017-09-10T11:07:28.110Z,1.70
2017-09-10T11:09:55.709Z,1.70
2017-09-10T11:12:23.276Z,1.30
2017-09-10T11:14:50.842Z,1.73
2017-09-10T11:17:18.409Z,1.60
2017-09-10T11:19:45.969Z,1.50
2017-09-10T11:22:13.799Z,1.63
2017-09-10T11:24:41.607Z,1.80
2017-09-10T11:27:09.148Z,1.40
2017-09-10T11:29:36.698Z,1.57
2017-09-10T11:32:04.271Z,2.20
2017-09-10T11:34:32.520Z,1.90
2017-09-10T11:37:00.071Z,1.80
2017-09-10T11:39:27.648Z,2.10
2017-09-10T11:41:55.199Z,1.80
2017-09-10T11:44:22.814Z,1.80
2017-09-10T11:46:50.388Z,1.73
2017-09-10T11:49:17.945Z,2.50
2017-09-10T11:51:45.889Z,2.13
2017-09-10T11:54:13.443Z,2.33
2017-09-10T11:56:41.013Z,3.00
2017-09-10T11:59:08.628Z,2.53
2017-09-10T12:01:36.193Z,2.20
2017-09-10T12:04:03.750Z,3.20
2017-09-10T12:06:31.311Z,3.03
2017-09-10T12:09:03.412Z,3.03
2017-09-10T12:11:30.969Z,3.13
2017-09-10T12:13:58.561Z,3.20
2017-09-10T12:16:26.157Z,2.40
2017-09-10T12:18:53.699Z,3.00
2017-09-10T12:21:21.269Z,2.93
2017-09-10T12:23:48.803Z,2.20
2017-09-10T12:26:16.358Z,2.37
2017-09-10T12:28:43.956Z,2.80
2017-09-10T12:31:11.521Z,2.80
2017-09-10T12:33:39.097Z,2.50
2017-09-10T12:36:06.619Z,1.87
2017-09-10T12:38:34.173Z,2.00
2017-09-10T12:41:01.763Z,1.77
2017-09-10T12:43:29.740Z,2.67
2017-09-10T12:45:57.287Z,2.30
2017-09-10T12:48:24.841Z,2.00
2017-09-10T12:50:52.405Z,2.20
2017-09-10T12:53:19.949Z,2.00
2017-09-10T12:55:47.509Z,1.50
2017-09-10T12:58:15.061Z,1.80
2017-09-10T13:00:42.868Z,2.07
2017-09-10T13:03:10.438Z,1.77
2017-09-10T13:05:38.760Z,1.60
2017-09-10T13:08:06.318Z,1.70
2017-09-10T13:10:33.980Z,2.10
2017-09-10T13:13:01.564Z,2.03
2017-09-10T13:15:29.115Z,1.93
2017-09-10T13:17:56.675Z,2.50
2017-09-10T13:20:24.271Z,1.80
2017-09-10T13:22:51.837Z,1.60
2017-09-10T13:25:19.420Z,1.40
2017-09-10T13:27:47.793Z,1.80
2017-09-10T13:30:15.364Z,1.60
2017-09-10T13:32:43.689Z,1.67
2017-09-10T13:35:11.250Z,1.80
2017-09-10T13:37:38.815Z,1.70
2017-09-10T13:40:06.403Z,1.60
2017-09-10T13:42:33.993Z,1.60
2017-09-10T13:45:01.557Z,1.63
2017-09-10T13:47:29.155Z,2.77
2017-09-10T13:49:56.690Z,2.13
2017-09-10T13:52:24.558Z,3.10
2017-09-10T13:54:52.124Z,1.93
2017-09-10T13:57:19.674Z,2.30
2017-09-10T13:59:47.287Z,1.90
2017-09-10T14:02:14.838Z,2.40
2017-09-10T14:04:43.167Z,2.00
2017-09-10T14:07:11.527Z,1.90
2017-09-10T14:09:39.344Z,1.90
2017-09-10T14:12:06.955Z,2.13
2017-09-10T14:14:34.500Z,2.30
2017-09-10T14:17:02.858Z,2.50
2017-09-10T14:19:30.460Z,2.03
2017-09-10T14:21:58.081Z,1.70
2017-09-10T14:24:25.654Z,2.40
2017-09-10T14:26:53.692Z,2.47
2017-09-10T14:29:22.090Z,2.23
2017-09-10T14:31:49.686Z,2.50
2017-09-10T14:34:17.269Z,2.17
2017-09-10T14:36:44.836Z,2.60
2017-09-10T14:39:12.445Z,2.00
2017-09-10T14:41:40.020Z,2.47
2017-09-10T14:44:07.850Z,2.30
2017-09-10T14:46:35.414Z,2.03
2017-09-10T14:49:02.972Z,2.47
2017-09-10T14:51:31.323Z,2.33
2017-09-10T14:53:58.866Z,2.53
2017-09-10T14:56:26.428Z,2.43
2017-09-10T14:58:53.992Z,1.93
2017-09-10T15:01:21.587Z,1.93
2017-09-10T15:03:49.212Z,2.47
2017-09-10T15:06:16.788Z,2.50
2017-09-10T15:08:44.409Z,2.00
2017-09-10T15:11:11.963Z,2.77
2017-09-10T15:13:41.346Z,2.50
2017-09-10T15:16:09.402Z,2.20
2017-09-10T15:18:38.086Z,2.40
2017-09-10T15:21:06.133Z,2.30
2017-09-10T15:23:34.208Z,2.10
2017-09-10T15:26:02.622Z,2.60
2017-09-10T15:28:30.531Z,2.87
2017-09-10T15:30:58.714Z,2.77
2017-09-10T15:33:26.916Z,2.67
2017-09-10T15:35:55.377Z,3.83
2017-09-10T15:38:24.092Z,4.10
2017-09-10T15:40:52.060Z,4.30
2017-09-10T15:43:21.000Z,4.00
2017-09-10T15:45:49.988Z,3.53
2017-09-10T15:48:18.217Z,3.07
2017-09-10T15:50:46.551Z,4.57
2017-09-10T15:53:14.771Z,4.73
2017-09-10T15:55:42.635Z,3.53
2017-09-10T15:58:10.564Z,3.30
2017-09-10T16:00:39.696Z,3.00
2017-09-10T16:03:07.884Z,4.67
2017-09-10T16:05:36.577Z,3.77
2017-09-10T16:08:04.122Z,2.73
2017-09-10T16:10:32.424Z,3.20
2017-09-10T16:13:00.000Z,3.23
2017-09-10T16:15:27.549Z,3.23
2017-09-10T16:17:55.125Z,2.70
2017-09-10T16:20:22.698Z,3.43
2017-09-10T16:22:50.237Z,3.33
2017-09-10T16:25:17.832Z,2.53
2017-09-10T16:27:45.374Z,2.90
2017-09-10T16:30:12.959Z,2.70
2017-09-10T16:32:41.288Z,2.70
2017-09-10T16:35:08.852Z,2.70
2017-09-10T16:37:36.427Z,6.33
2017-09-10T16:40:04.245Z,2.60
2017-09-10T16:42:32.561Z,2.83
2017-09-10T16:45:00.107Z,3.23
2017-09-10T16:47:28.434Z,2.10
2017-09-10T16:49:55.972Z,10.77
2017-09-10T16:52:23.849Z,3.90
2017-09-10T16:54:51.401Z,3.27
2017-09-10T16:57:18.975Z,2.97
2017-09-10T16:59:46.502Z,3.30
2017-09-10T17:02:14.070Z,2.63
2017-09-10T17:04:41.646Z,2.90
2017-09-10T17:07:09.171Z,3.20
2017-09-10T17:09:37.070Z,2.80
2017-09-10T17:12:04.599Z,3.33
2017-09-10T17:14:32.150Z,2.70
2017-09-10T17:16:59.733Z,2.70
2017-09-10T17:19:27.284Z,2.87
2017-09-10T17:21:54.825Z,6.43
2017-09-10T17:24:22.386Z,3.77
2017-09-10T17:26:49.946Z,3.90
2017-09-10T17:29:17.497Z,2.60
2017-09-10T17:31:45.026Z,2.60
2017-09-10T17:34:12.583Z,2.90
2017-09-10T17:36:40.134Z,2.90
2017-09-10T17:39:07.720Z,3.07
2017-09-10T17:41:35.277Z,2.90
2017-09-10T17:44:02.819Z,2.93
2017-09-10T17:46:30.373Z,2.80
2017-09-10T17:48:57.921Z,3.40
2017-09-10T17:51:25.471Z,3.10
2017-09-10T17:53:53.024Z,3.37
2017-09-10T17:56:20.580Z,3.60
2017-09-10T17:58:48.134Z,3.30
2017-09-10T18:01:15.689Z,3.00
2017-09-10T18:03:43.275Z,2.80
2017-09-10T18:06:10.819Z,3.27
2017-09-10T18:08:38.700Z,2.60
2017-09-10T18:11:06.241Z,2.70
2017-09-10T18:13:33.821Z,2.90
2017-09-10T18:16:01.401Z,3.20
2017-09-10T18:18:28.965Z,3.10
2017-09-10T18:20:57.277Z,3.20
2017-09-10T18:23:24.837Z,3.00
2017-09-10T18:25:52.414Z,2.90
2017-09-10T18:28:19.962Z,3.00
2017-09-10T18:30:47.519Z,3.20
2017-09-10T18:33:15.115Z,4.00
2017-09-10T18:35:42.656Z,6.37
2017-09-10T18:38:10.515Z,4.20
2017-09-10T18:40:38.120Z,4.27
2017-09-10T18:43:06.467Z,5.40
2017-09-10T18:45:34.063Z,5.00
2017-09-10T18:48:02.405Z,4.30
2017-09-10T18:50:30.012Z,4.07
2017-09-10T18:52:57.644Z,4.90
2017-09-10T18:55:25.541Z,4.80
2017-09-10T18:57:53.856Z,4.03
2017-09-10T19:00:21.475Z,4.50
2017-09-10T19:02:49.816Z,3.80
2017-09-10T19:05:17.395Z,5.00
2017-09-10T19:07:44.962Z,4.83
2017-09-10T19:10:12.572Z,5.00
2017-09-10T19:12:40.423Z,5.90
2017-09-10T19:15:08.031Z,4.77
2017-09-10T19:17:35.582Z,5.80
2017-09-10T19:20:03.220Z,5.23
2017-09-10T19:22:30.829Z,5.40
2017-09-10T19:24:59.160Z,4.40
2017-09-10T19:27:26.779Z,4.17
2017-09-10T19:29:55.115Z,3.93
2017-09-10T19:32:22.738Z,3.87
2017-09-10T19:34:51.097Z,4.40
2017-09-10T19:37:18.713Z,3.67
2017-09-10T19:39:46.322Z,3.90
2017-09-10T19:42:14.254Z,3.10
2017-09-10T19:44:41.888Z,3.23
2017-09-10T19:47:09.477Z,3.83
2017-09-10T19:49:37.613Z,3.10
2017-09-10T19:52:05.164Z,3.27
2017-09-10T19:54:32.757Z,3.30
2017-09-10T19:57:00.355Z,3.30
2017-09-10T19:59:31.349Z,4.40
2017-09-10T20:01:58.942Z,3.00
2017-09-10T20:04:26.473Z,2.77
2017-09-10T20:06:54.110Z,2.70
2017-09-10T20:09:21.663Z,3.20
2017-09-10T20:11:49.256Z,2.70
2017-09-10T20:14:16.831Z,2.30
2017-09-10T20:16:44.635Z,2.27
2017-09-10T20:19:12.231Z,2.60
2017-09-10T20:21:39.868Z,2.67
2017-09-10T20:24:07.487Z,3.10
2017-09-10T20:26:35.088Z,2.37
2017-09-10T20:29:02.717Z,2.80
2017-09-10T20:31:31.067Z,2.90
2017-09-10T20:33:58.916Z,2.70
2017-09-10T20:36:26.502Z,2.93
2017-09-10T20:38:54.047Z,2.40
2017-09-10T20:41:21.679Z,2.40
2017-09-10T20:43:49.232Z,3.27
2017-09-10T20:46:16.811Z,2.67
2017-09-10T20:48:44.702Z,2.30
2017-09-10T20:51:12.569Z,2.13
2017-09-10T20:53:40.143Z,2.57
2017-09-10T20:56:07.683Z,2.10
2017-09-10T20:58:35.325Z,3.10
2017-09-10T21:01:02.917Z,2.77
2017-09-10T21:03:30.475Z,2.07
2017-09-10T21:05:58.089Z,2.63
2017-09-10T21:08:25.970Z,2.30
2017-09-10T21:10:53.572Z,2.30
2017-09-10T21:13:21.107Z,2.10
2017-09-10T21:15:48.754Z,2.30
2017-09-10T21:18:20.497Z,2.50
2017-09-10T21:20:48.089Z,2.47
2017-09-10T21:23:15.656Z,2.63
2017-09-10T21:25:43.274Z,2.17
2017-09-10T21:28:11.139Z,2.50
2017-09-10T21:30:38.698Z,2.70
2017-09-10T21:33:06.273Z,3.00
2017-09-10T21:35:33.871Z,2.83
2017-09-10T21:38:01.516Z,2.77
2017-09-10T21:40:29.050Z,2.20
2017-09-10T21:42:56.921Z,3.17
2017-09-10T21:45:24.463Z,2.90
2017-09-10T21:47:52.039Z,2.70
2017-09-10T21:50:19.642Z,2.53
2017-09-10T21:52:47.186Z,2.50
2017-09-10T21:55:14.820Z,3.33
2017-09-10T21:57:42.362Z,2.77
2017-09-10T22:00:10.265Z,2.50
2017-09-10T22:02:37.815Z,2.60
2017-09-10T22:05:05.465Z,4.00
2017-09-10T22:07:33.080Z,2.73
2017-09-10T22:10:38.878Z,1.90
2017-09-10T22:13:06.423Z,2.70
2017-09-10T22:15:34.015Z,2.10
2017-09-10T22:18:01.599Z,1.80
2017-09-10T22:20:29.139Z,1.93
2017-09-10T22:22:56.784Z,1.80
2017-09-10T22:25:24.388Z,1.90
2017-09-10T22:27:52.240Z,2.07
2017-09-10T22:30:19.779Z,1.63
2017-09-10T22:32:47.423Z,1.53
2017-09-10T22:35:15.088Z,2.77
2017-09-10T22:37:42.687Z,1.60
2017-09-10T22:40:10.348Z,1.83
2017-09-10T22:42:37.875Z,1.90
2017-09-10T22:45:05.476Z,1.90
2017-09-10T22:47:33.816Z,1.90
2017-09-10T22:50:01.335Z,2.53
2017-09-10T22:52:28.892Z,1.70
2017-09-10T22:54:57.182Z,2.23
2017-09-10T22:57:24.723Z,2.00
2017-09-10T22:59:52.259Z,1.87
2017-09-10T23:02:19.800Z,1.97
2017-09-10T23:04:47.354Z,1.90
2017-09-10T23:07:14.876Z,2.27
2017-09-10T23:09:42.404Z,1.83
2017-09-10T23:12:09.966Z,1.97
2017-09-10T23:14:37.477Z,2.10
2017-09-10T23:17:05.406Z,1.77
2017-09-10T23:19:33.805Z,1.83
2017-09-10T23:22:01.331Z,2.10
2017-09-10T23:24:28.882Z,2.67
2017-09-10T23:26:56.398Z,1.40
2017-09-10T23:29:23.944Z,1.83
2017-09-10T23:31:51.477Z,2.23
2017-09-10T23:34:19.780Z,2.10
2017-09-10T23:36:47.308Z,1.73
2017-09-10T23:39:14.843Z,2.10
2017-09-10T23:41:42.679Z,2.07
2017-09-10T23:44:10.199Z,1.80
2017-09-10T23:46:38.497Z,3.00
2017-09-10T23:49:06.049Z,1.77
2017-09-10T23:51:33.622Z,1.80
2017-09-10T23:54:01.494Z,1.90
2017-09-10T23:56:29.040Z,1.97
2017-09-10T23:58:56.550Z,1.90
